createdAt,value
2023-02-05T00:03:42.981Z,24.1
2023-02-05T00:08:58.508Z,23.1
2023-02-05T00:14:15.305Z,29.5
2023-02-05T00:19:31.784Z,28.9
2023-02-05T00:24:43.248Z,28.3
2023-02-05T00:29:57.551Z,26.2
2023-02-05T00:35:14.320Z,25
2023-02-05T00:40:32.375Z,23
2023-02-05T00:45:44.878Z,27.7
2023-02-05T00:51:03.125Z,23.5
2023-02-05T00:56:15.110Z,24.3
2023-02-05T01:01:30.896Z,24.3
2023-02-05T01:06:46.648Z,29.3
2023-02-05T01:12:03.506Z,22.2
2023-02-05T01:17:13.731Z,23.6
2023-02-05T01:22:29.611Z,29.6
2023-02-05T01:38:23.141Z,33.3
2023-02-05T01:43:38.192Z,30.1
2023-02-05T01:48:49.996Z,32.3
2023-02-05T01:54:06.348Z,28.3
2023-02-05T01:59:17.628Z,29.3
2023-02-05T02:04:32.521Z,36
2023-02-05T02:09:50.256Z,57.5
2023-02-05T02:15:03.885Z,37.1
2023-02-05T02:20:15.823Z,49.2
2023-02-05T02:25:32.143Z,44.8
2023-02-05T02:30:46.443Z,42.7
2023-02-05T02:36:04.670Z,72
2023-02-05T02:41:14.735Z,42.2
2023-02-05T02:46:25.737Z,57
2023-02-05T02:51:41.733Z,50.6
2023-02-05T02:56:56.255Z,69
2023-02-05T03:02:11.808Z,42.9
2023-02-05T03:07:22.550Z,38.7
2023-02-05T03:12:38.864Z,35.6
2023-02-05T03:17:52.995Z,35.2
2023-02-05T03:23:04.861Z,34.3
2023-02-05T03:28:21.009Z,31.8
2023-02-05T03:33:30.074Z,36.3
2023-02-05T03:38:41.205Z,28.7
2023-02-05T03:49:22.297Z,29.3
2023-02-05T03:54:37.276Z,33.5
2023-02-05T03:59:49.304Z,29.3
2023-02-05T04:05:04.813Z,40.9
2023-02-05T04:15:36.540Z,31.6
2023-02-05T04:20:49.881Z,31.1
2023-02-05T04:26:02.214Z,32.4
2023-02-05T04:36:38.312Z,29.9
2023-02-05T04:41:50.154Z,30.2
2023-02-05T04:47:04.542Z,42.1
2023-02-05T04:52:18.613Z,31.6
2023-02-05T04:57:35.002Z,23.8
2023-02-05T05:02:49.012Z,23.2
2023-02-05T05:08:04.889Z,20.8
2023-02-05T05:13:20.404Z,20.1
2023-02-05T05:18:36.132Z,20.4
2023-02-05T05:23:46.336Z,27.6
2023-02-05T05:29:01.186Z,19.3
2023-02-05T05:39:36.645Z,25.7
2023-02-05T05:44:52.925Z,17.4
2023-02-05T05:50:06.783Z,22.7
2023-02-05T05:55:20.370Z,15.3
2023-02-05T06:00:33.590Z,13.3
2023-02-05T06:11:10.925Z,12.4
2023-02-05T06:16:25.497Z,28
2023-02-05T06:21:37.402Z,15.8
2023-02-05T06:32:10.737Z,13.4
2023-02-05T06:42:57.119Z,12.8
2023-02-05T06:53:26.611Z,10.2
2023-02-05T07:09:20.605Z,13.1
2023-02-05T07:14:33.611Z,10.3
2023-02-05T07:19:45.773Z,11.2
2023-02-05T07:30:18.539Z,10
2023-02-05T07:35:35.014Z,11.8
2023-02-05T07:40:45.996Z,57
2023-02-05T07:45:57.135Z,12
2023-02-05T07:56:32.721Z,10.2
2023-02-05T08:01:44.505Z,9.7
2023-02-05T08:06:58.633Z,10.6
2023-02-05T08:12:08.950Z,7.8
2023-02-05T08:22:49.296Z,6.7
2023-02-05T08:28:01.047Z,5.6
2023-02-05T08:33:13.005Z,5.8
2023-02-05T08:38:25.413Z,7.2
2023-02-05T08:43:40.849Z,5.4
2023-02-05T08:48:54.922Z,6.8
2023-02-05T08:54:06.943Z,6.5
2023-02-05T08:59:19.289Z,6.9
2023-02-05T09:09:51.676Z,5.4
2023-02-05T09:15:02.012Z,5.5
2023-02-05T09:20:17.595Z,6
2023-02-05T09:25:29.821Z,4.8
2023-02-05T09:30:38.438Z,4.5
2023-02-05T09:35:50.343Z,5.4
2023-02-05T09:41:02.181Z,5.1
2023-02-05T09:46:13.939Z,4.9
2023-02-05T09:56:47.476Z,3.9
2023-02-05T10:02:06.136Z,4.4
2023-02-05T10:07:16.240Z,4
2023-02-05T10:12:26.256Z,4.6
2023-02-05T10:17:42.641Z,5.4
2023-02-05T10:28:15.530Z,4.3
2023-02-05T10:33:27.119Z,4.5
2023-02-05T10:54:43.081Z,4.1
2023-02-05T10:59:52.091Z,4.1
2023-02-05T11:05:05.576Z,17.3
2023-02-05T11:10:19.461Z,10.2
2023-02-05T11:15:26.778Z,10.8
2023-02-05T11:20:43.306Z,3.7
2023-02-05T11:26:03.342Z,5.3
2023-02-05T11:36:34.550Z,4.5
2023-02-05T11:47:07.763Z,6.3
2023-02-05T11:52:19.522Z,3.6
2023-02-05T11:57:31.169Z,4.3
2023-02-05T12:08:09.406Z,3.9
2023-02-05T12:29:31.885Z,5.9
2023-02-05T12:34:42.929Z,4.4
2023-02-05T12:39:55.625Z,6.9
2023-02-05T12:45:06.811Z,6.6
2023-02-05T12:50:24.095Z,5.2
2023-02-05T12:55:27.994Z,6.2
2023-02-05T13:00:40.463Z,7.1
2023-02-05T13:05:51.077Z,5.1
2023-02-05T13:11:02.912Z,4.8
2023-02-05T13:16:14.076Z,4.5
2023-02-05T13:26:47.715Z,5.3
2023-02-05T13:53:25.024Z,7.3
2023-02-05T13:58:35.551Z,6.3
2023-02-05T14:03:46.208Z,6.1
2023-02-05T14:08:56.215Z,6.5
2023-02-05T14:14:08.075Z,7.4
2023-02-05T14:19:18.266Z,9.3
2023-02-05T14:24:29.685Z,8.9
2023-02-05T14:29:41.902Z,11
2023-02-05T14:34:53.315Z,16.5
2023-02-05T14:40:04.856Z,36
2023-02-05T14:45:23.612Z,16.3
2023-02-05T14:50:35.052Z,33.4
2023-02-05T14:55:51.114Z,11.3
2023-02-05T15:01:04.057Z,13.2
2023-02-05T15:06:17.748Z,24.2
2023-02-05T15:11:34.004Z,12.3
2023-02-05T15:16:47.647Z,16.6
2023-02-05T15:22:03.668Z,10.8
2023-02-05T15:27:16.086Z,10
2023-02-05T15:32:31.173Z,9.9
2023-02-05T15:37:46.885Z,9.8
2023-02-05T15:43:06.473Z,10.5
2023-02-05T15:48:17.668Z,10.1
2023-02-05T15:53:34.167Z,11.1
2023-02-05T16:04:09.946Z,17.1
2023-02-05T16:09:21.852Z,13.8
2023-02-05T16:14:35.648Z,24.9
2023-02-05T16:19:49.487Z,20.1
2023-02-05T16:25:06.356Z,16.2
2023-02-05T16:30:15.420Z,18.9
2023-02-05T16:35:32.395Z,18.1
2023-02-05T16:40:46.305Z,25.9
2023-02-05T16:45:58.749Z,18.5
2023-02-05T16:51:13.921Z,21.6
2023-02-05T16:56:28.151Z,27
2023-02-05T17:01:46.011Z,30
2023-02-05T17:07:02.132Z,21.1
2023-02-05T17:12:13.222Z,28.4
2023-02-05T17:17:29.327Z,24.3
2023-02-05T17:22:45.590Z,26.7
2023-02-05T17:27:58.273Z,21.4
2023-02-05T17:33:10.005Z,14.9
2023-02-05T17:38:25.609Z,14.5
2023-02-05T17:43:40.976Z,14.8
2023-02-05T17:48:56.348Z,19.1
2023-02-05T17:54:14.055Z,18.2
2023-02-05T17:59:30.778Z,24.2
2023-02-05T18:04:51.913Z,33
2023-02-05T18:10:08.487Z,39.8
2023-02-05T18:15:26.906Z,35.3
2023-02-05T18:31:24.047Z,33.9
2023-02-05T18:36:34.372Z,24.3
2023-02-05T18:42:00.971Z,27.3
2023-02-05T18:47:16.644Z,29.4
2023-02-05T18:52:31.722Z,24.8
2023-02-05T18:57:45.703Z,32.9
2023-02-05T19:02:59.505Z,39.8
2023-02-05T19:08:14.036Z,32.2
2023-02-05T19:13:29.051Z,53.6
2023-02-05T19:18:46.658Z,38.8
2023-02-05T19:24:01.011Z,39.8
2023-02-05T19:29:22.697Z,45.1
2023-02-05T19:34:36.975Z,37.7
2023-02-05T19:45:09.614Z,34.9
2023-02-05T19:50:25.610Z,40.8
2023-02-05T19:55:38.241Z,36.3
2023-02-05T20:00:53.041Z,31.1
2023-02-05T20:06:07.964Z,36
2023-02-05T20:11:25.051Z,29.7
2023-02-05T20:16:41.844Z,30.5
2023-02-05T20:21:53.492Z,28.9
2023-02-05T20:27:03.915Z,29.8
2023-02-05T20:32:21.323Z,29.1
2023-02-05T20:37:41.095Z,33.4
2023-02-05T20:42:52.662Z,31.3
2023-02-05T20:48:05.312Z,32.6
2023-02-05T20:53:17.338Z,31.5
2023-02-05T21:03:58.339Z,33.6
2023-02-05T21:09:11.846Z,35
2023-02-05T21:14:22.536Z,33.5
2023-02-05T21:19:35.145Z,33.5
2023-02-05T21:35:33.476Z,30.4
2023-02-05T21:40:49.138Z,25.8
2023-02-05T21:51:18.303Z,24.6
2023-02-05T22:02:01.091Z,23.1
2023-02-05T22:12:33.407Z,22
2023-02-05T22:23:18.622Z,21.7
2023-02-05T22:28:30.636Z,21.7
2023-02-05T22:39:06.775Z,22.1
2023-02-05T22:44:21.239Z,23.6
2023-02-05T23:05:38.132Z,24.7
2023-02-05T23:26:54.488Z,23.6
2023-02-05T23:42:49.584Z,20
2023-02-05T23:53:26.976Z,22.8
